Time;durP1;ratioP1;P1;durP2;ratioP2;P2;SDS_P1;SDS_P2;PMS_P1;PMS_P2;Temp;Humidity;BMP_temperature;BMP_pressure;BME280_temperature;BME280_humidity;BME280_pressure;Samples;Min_cycle;Max_cycle;Signal;HPM_P1;HPM_P2
2023/04/29 00:00:37;;;;;;;4.10;2.60;;;;;;;8.81;74.74;98321.00;5055263;28;20631;-60
2023/04/29 00:03:02;;;;;;;2.33;2.22;;;;;;;8.54;75.05;98285.78;5055224;28;20285;-60
2023/04/29 00:05:28;;;;;;;3.85;2.60;;;;;;;8.41;77.66;98285.72;5055083;28;20247;-60
2023/04/29 00:07:53;;;;;;;2.88;2.55;;;;;;;8.41;77.48;98283.16;5055130;28;20711;-60
2023/04/29 00:10:19;;;;;;;3.13;2.55;;;;;;;8.72;74.93;98329.31;5055070;28;20174;-60
2023/04/29 00:12:44;;;;;;;3.15;2.30;;;;;;;9.06;74.38;98375.31;5055007;28;20557;-60
2023/04/29 00:15:10;;;;;;;2.90;2.60;;;;;;;9.11;73.27;98368.09;5054980;28;20262;-60
2023/04/29 00:17:35;;;;;;;2.60;2.40;;;;;;;9.01;72.70;98348.94;5055202;28;20632;-60
2023/04/29 00:20:01;;;;;;;3.60;3.10;;;;;;;9.28;72.79;98375.59;5054852;28;20518;-60
2023/04/29 00:22:27;;;;;;;3.30;2.72;;;;;;;8.68;72.40;98278.84;5054824;28;20178;-61
2023/04/29 00:24:53;;;;;;;3.15;2.78;;;;;;;9.22;73.72;98360.50;5054718;28;20579;-61
2023/04/29 00:27:18;;;;;;;2.80;2.60;;;;;;;9.16;74.52;98366.06;5054733;28;20226;-60
2023/04/29 00:29:44;;;;;;;2.75;2.55;;;;;;;9.01;75.12;98336.06;5054725;28;20561;-60
2023/04/29 00:32:10;;;;;;;3.33;2.55;;;;;;;8.65;75.74;98312.56;5054678;28;20185;-60
2023/04/29 00:34:35;;;;;;;3.17;2.88;;;;;;;8.63;75.41;98293.75;5054649;28;20651;-60
2023/04/29 00:37:01;;;;;;;2.60;2.40;;;;;;;8.34;75.01;98270.72;5054565;28;20190;-61
2023/04/29 00:39:26;;;;;;;2.80;2.60;;;;;;;8.56;75.88;98313.13;5054227;28;20608;-60
2023/04/29 00:41:52;;;;;;;3.40;3.10;;;;;;;8.16;76.90;98262.34;5054465;28;20174;-60
2023/04/29 00:44:17;;;;;;;3.30;2.78;;;;;;;8.63;77.49;98357.44;5054331;28;20232;-60
2023/04/29 00:46:43;;;;;;;3.03;2.63;;;;;;;8.59;78.93;98379.16;5054358;28;20235;-60
2023/04/29 00:49:12;;;;;;;4.63;2.85;;;;;;;8.17;78.68;98315.56;5054356;28;20174;-60
2023/04/29 00:51:40;;;;;;;3.25;2.85;;;;;;;8.47;80.39;98372.16;5053677;28;20644;-61
2023/04/29 00:54:06;;;;;;;12.23;4.28;;;;;;;8.30;80.08;98344.00;5054180;28;20216;-60
2023/04/29 00:56:35;;;;;;;3.22;2.92;;;;;;;8.27;80.72;98352.75;5054186;28;20189;-60
2023/04/29 00:59:02;;;;;;;3.15;2.90;;;;;;;7.74;82.06;98270.06;5054178;28;20192;-60
2023/04/29 01:01:29;;;;;;;3.47;3.15;;;;;;;7.86;84.23;98317.47;5053767;28;20566;-61
2023/04/29 01:03:55;;;;;;;3.67;3.00;;;;;;;7.77;84.05;98324.00;5053952;28;20284;-61
2023/04/29 01:06:59;;;;;;;3.35;2.80;;;;;;;8.05;86.09;98362.63;5054068;28;20178;-61
2023/04/29 01:09:53;;;;;;;3.70;3.35;;;;;;;7.99;87.89;98360.41;5053959;28;20173;-61
2023/04/29 01:12:40;;;;;;;5.45;2.90;;;;;;;8.36;85.84;98372.81;5053847;28;20621;-61
2023/04/29 01:15:26;;;;;;;6.00;3.75;;;;;;;8.25;88.98;98359.75;5053836;28;20184;-61
2023/04/29 01:18:02;;;;;;;4.40;4.03;;;;;;;7.74;90.03;98279.56;5053922;28;20169;-61
2023/04/29 01:20:28;;;;;;;4.55;4.15;;;;;;;7.76;91.06;98293.97;5053805;28;20166;-61
2023/04/29 01:22:53;;;;;;;4.30;3.92;;;;;;;8.12;92.16;98357.97;5053737;28;20669;-61
2023/04/29 01:25:18;;;;;;;5.25;4.45;;;;;;;7.81;90.74;98265.41;5053595;28;20205;-61
2023/04/29 01:28:12;;;;;;;6.65;4.50;;;;;;;8.20;93.10;98366.09;5053584;28;20268;-61
2023/04/29 01:30:55;;;;;;;6.03;3.95;;;;;;;8.39;88.93;98361.50;5053645;28;20162;-61
2023/04/29 01:33:20;;;;;;;5.25;3.47;;;;;;;8.56;86.68;98369.03;5053542;28;20175;-61
2023/04/29 01:36:12;;;;;;;6.20;4.75;;;;;;;8.63;86.86;98367.75;5053433;28;20177;-61
2023/04/29 01:38:47;;;;;;;6.55;5.32;;;;;;;8.63;87.51;98345.34;5053503;28;20170;-61
2023/04/29 01:41:26;;;;;;;10.05;5.43;;;;;;;8.89;87.65;98366.94;5053408;28;20193;-61
2023/04/29 01:43:55;;;;;;;12.65;7.15;;;;;;;8.53;89.17;98308.16;5030921;28;20637;-61
2023/04/29 01:46:20;;;;;;;12.95;6.63;;;;;;;8.85;89.79;98366.31;5030949;28;20190;-61
2023/04/29 01:48:46;;;;;;;12.98;7.78;;;;;;;8.47;88.89;98274.19;5030915;28;20194;-61
2023/04/29 01:51:12;;;;;;;19.23;8.20;;;;;;;8.80;89.45;98342.53;5031147;28;20181;-62
2023/04/29 01:53:39;;;;;;;9.45;6.28;;;;;;;8.37;90.29;98332.38;5030846;28;20251;-61
2023/04/29 01:56:06;;;;;;;3.50;3.03;;;;;;;8.16;82.62;98288.09;5030797;28;20186;-61
2023/04/29 01:58:31;;;;;;;3.13;2.90;;;;;;;8.49;80.45;98331.63;5030581;28;20232;-61
2023/04/29 02:00:57;;;;;;;2.95;2.75;;;;;;;8.26;79.31;98294.38;5030633;28;20186;-61
2023/04/29 02:03:22;;;;;;;2.65;2.45;;;;;;;7.93;79.73;98265.47;5030217;28;20273;-61
2023/04/29 02:05:49;;;;;;;4.05;2.70;;;;;;;8.08;80.21;98294.63;5010456;28;20264;-62
2023/04/29 02:08:15;;;;;;;4.03;3.20;;;;;;;8.19;80.38;98321.44;5010723;28;20191;-61
2023/04/29 02:10:41;;;;;;;5.30;3.10;;;;;;;7.69;81.00;98236.03;5010823;28;20281;-61
2023/04/29 02:13:06;;;;;;;5.45;4.45;;;;;;;7.63;83.74;98240.75;5010784;28;20670;-61
2023/04/29 02:15:32;;;;;;;8.05;6.30;;;;;;;8.11;89.67;98320.22;5042113;28;20181;-61
2023/04/29 02:17:57;;;;;;;7.63;6.28;;;;;;;7.89;91.07;98265.75;5050340;28;20686;-61
2023/04/29 02:20:23;;;;;;;12.05;6.50;;;;;;;8.08;94.17;98318.66;5050265;28;20205;-61
2023/04/29 02:22:48;;;;;;;8.30;6.65;;;;;;;8.26;91.97;98332.22;5050251;28;20174;-61
2023/04/29 02:25:14;;;;;;;10.80;5.00;;;;;;;8.10;89.69;98319.41;5050227;28;20221;-62
2023/04/29 02:27:39;;;;;;;9.05;4.68;;;;;;;7.81;85.10;98278.28;5030116;28;20191;-62
2023/04/29 02:30:05;;;;;;;11.93;4.90;;;;;;;7.99;86.99;98326.13;5030437;28;20277;-62
2023/04/29 02:32:31;;;;;;;7.25;6.25;;;;;;;7.69;91.50;98318.44;5030395;28;20182;-62
2023/04/29 02:34:56;;;;;;;8.82;5.60;;;;;;;7.48;91.37;98293.13;5030130;28;20277;-61
2023/04/29 02:37:22;;;;;;;6.95;5.50;;;;;;;7.64;94.05;98325.59;5044934;28;20178;-62
2023/04/29 02:39:48;;;;;;;7.13;6.00;;;;;;;7.57;96.14;98328.63;5050010;28;20580;-61
2023/04/29 02:42:13;;;;;;;3.67;3.38;;;;;;;7.21;87.79;98249.22;5049924;28;20186;-62
2023/04/29 02:44:40;;;;;;;3.13;2.70;;;;;;;7.73;84.90;98331.97;5049853;28;20644;-62
2023/04/29 02:47:05;;;;;;;2.58;2.38;;;;;;;7.32;83.70;98246.84;5049835;28;20186;-62
2023/04/29 02:49:31;;;;;;;8.80;3.33;;;;;;;7.84;82.93;98314.97;5050109;28;20188;-61
2023/04/29 02:51:57;;;;;;;3.08;2.78;;;;;;;7.94;82.22;98320.41;5049851;28;20205;-62
2023/04/29 02:54:23;;;;;;;3.50;3.05;;;;;;;7.82;81.92;98303.09;5049774;28;20190;-61
2023/04/29 02:56:48;;;;;;;3.58;2.80;;;;;;;7.83;82.26;98323.63;5049777;28;20243;-61
2023/04/29 02:59:14;;;;;;;3.25;2.83;;;;;;;7.75;81.39;98288.94;5051018;28;20225;-62
2023/04/29 03:01:39;;;;;;;3.00;2.80;;;;;;;7.56;80.96;98245.41;5052150;28;20181;-61
2023/04/29 03:04:05;;;;;;;6.35;2.60;;;;;;;8.11;80.57;98335.69;5051984;28;20284;-62
2023/04/29 03:06:31;;;;;;;4.45;3.35;;;;;;;8.11;79.86;98341.66;5052069;28;20192;-62
2023/04/29 03:08:56;;;;;;;3.38;3.08;;;;;;;7.47;80.09;98256.25;5051929;28;20628;-61
2023/04/29 03:11:23;;;;;;;4.85;2.88;;;;;;;7.94;80.95;98349.59;5052059;28;20166;-61
2023/04/29 03:13:49;;;;;;;4.35;2.90;;;;;;;7.57;84.02;98311.44;5029588;28;20569;-61
2023/04/29 03:16:15;;;;;;;4.32;3.70;;;;;;;7.58;88.84;98345.75;5032481;28;20205;-61
2023/04/29 03:18:44;;;;;;;8.93;5.13;;;;;;;7.57;91.01;98318.34;5013774;28;20183;-62
2023/04/29 03:21:09;;;;;;;8.73;4.85;;;;;;;7.72;94.05;98364.63;5013935;28;20217;-62
2023/04/29 03:23:35;;;;;;;11.23;5.95;;;;;;;7.69;95.64;98348.53;5013774;28;20202;-62
2023/04/29 03:26:00;;;;;;;6.63;5.20;;;;;;;6.94;97.93;98240.50;5013818;28;20179;-61
2023/04/29 03:28:26;;;;;;;4.75;3.95;;;;;;;7.66;92.01;98352.09;5013775;28;20191;-62
2023/04/29 03:30:52;;;;;;;5.95;3.03;;;;;;;7.38;87.69;98303.13;4993974;28;20184;-61
2023/04/29 03:33:17;;;;;;;3.30;2.85;;;;;;;7.49;85.83;98311.06;4994113;28;20192;-61
2023/04/29 03:35:44;;;;;;;9.05;3.22;;;;;;;7.12;85.06;98244.59;4994003;28;20235;-61
2023/04/29 03:38:10;;;;;;;4.20;2.85;;;;;;;7.30;84.23;98259.00;4994013;28;20191;-62
2023/04/29 03:40:36;;;;;;;3.13;2.83;;;;;;;7.44;82.25;98255.59;4993839;28;20187;-62
2023/04/29 03:43:02;;;;;;;4.32;2.70;;;;;;;7.97;82.45;98359.69;4993941;28;20658;-61
2023/04/29 03:45:28;;;;;;;3.53;3.25;;;;;;;7.39;83.56;98273.88;4993777;28;20227;-61
2023/04/29 03:47:53;;;;;;;4.13;3.72;;;;;;;7.73;84.83;98324.22;4993831;28;20211;-62
2023/04/29 03:50:19;;;;;;;3.88;3.55;;;;;;;8.04;83.37;98370.47;5011566;28;20253;-61
2023/04/29 03:52:45;;;;;;;3.28;2.90;;;;;;;7.94;83.10;98365.03;5016642;28;20222;-61
2023/04/29 03:55:11;;;;;;;3.63;3.28;;;;;;;7.96;83.39;98360.63;5033098;28;20233;-61
2023/04/29 03:57:37;;;;;;;5.80;2.88;;;;;;;7.63;82.34;98277.59;5032809;28;20197;-61
2023/04/29 04:00:03;;;;;;;4.03;2.72;;;;;;;7.98;82.20;98335.59;5033013;28;20175;-62
2023/04/29 04:02:28;;;;;;;3.78;3.33;;;;;;;7.91;81.26;98293.09;5050064;28;20221;-61
2023/04/29 04:04:54;;;;;;;3.28;2.92;;;;;;;7.98;80.34;98288.41;5055153;28;20292;-62
2023/04/29 04:07:20;;;;;;;3.58;3.20;;;;;;;8.62;79.65;98384.94;5055140;28;20637;-61
2023/04/29 04:09:45;;;;;;;2.33;2.20;;;;;;;8.49;78.05;98350.53;5055074;28;20196;-61
2023/04/29 04:12:10;;;;;;;2.95;2.75;;;;;;;8.81;76.53;98375.19;5055092;28;20169;-62
2023/04/29 04:14:36;;;;;;;3.83;2.75;;;;;;;8.86;76.41;98378.28;5055005;28;20188;-62
2023/04/29 04:17:01;;;;;;;2.92;2.72;;;;;;;8.63;77.32;98373.72;5055253;28;20647;-62
2023/04/29 04:19:28;;;;;;;3.00;2.70;;;;;;;8.78;77.61;98370.19;5054941;28;20264;-62
2023/04/29 04:21:53;;;;;;;3.08;2.80;;;;;;;8.72;78.37;98333.63;5054909;28;20183;-62
2023/04/29 04:24:19;;;;;;;3.78;3.00;;;;;;;8.91;77.32;98370.28;5054765;28;20189;-62
2023/04/29 04:26:45;;;;;;;3.90;2.78;;;;;;;8.97;76.46;98373.28;5054082;28;20554;-62
2023/04/29 04:29:10;;;;;;;2.58;2.38;;;;;;;9.04;76.40;98371.97;5054757;28;20239;-62
2023/04/29 04:31:35;;;;;;;2.85;2.60;;;;;;;9.16;76.00;98386.72;5054717;28;20220;-62
2023/04/29 04:34:01;;;;;;;4.30;2.92;;;;;;;9.30;75.32;98381.50;5054648;28;20173;-62
2023/04/29 04:36:27;;;;;;;2.72;2.53;;;;;;;9.27;74.66;98350.69;5054589;28;20178;-61
2023/04/29 04:38:52;;;;;;;3.20;3.00;;;;;;;9.29;73.67;98345.44;5054554;28;20167;-62
2023/04/29 04:41:18;;;;;;;5.53;3.10;;;;;;;9.30;73.62;98355.66;5054546;28;20182;-62
2023/04/29 04:43:43;;;;;;;2.88;2.63;;;;;;;9.37;73.36;98375.00;5054659;28;20169;-62
2023/04/29 04:46:10;;;;;;;3.00;2.80;;;;;;;9.43;74.12;98379.78;5054466;28;20260;-61
2023/04/29 04:48:36;;;;;;;4.78;2.72;;;;;;;8.97;74.27;98298.44;5054343;28;20196;-61
2023/04/29 04:51:11;;;;;;;3.30;3.00;;;;;;;9.36;73.91;98324.28;5054349;28;20547;-61
2023/04/29 04:53:37;;;;;;;2.80;2.40;;;;;;;9.71;72.80;98338.31;5054253;28;20627;-61
2023/04/29 04:56:03;;;;;;;2.90;2.33;;;;;;;9.61;70.64;98308.03;5054216;28;20188;-61
2023/04/29 04:58:32;;;;;;;5.00;3.30;;;;;;;9.88;70.96;98354.34;5054176;28;20189;-61
2023/04/29 05:00:58;;;;;;;4.03;2.60;;;;;;;9.61;70.11;98301.09;5054050;28;20186;-61
2023/04/29 05:03:24;;;;;;;3.65;2.90;;;;;;;10.00;70.30;98348.38;5054099;28;20256;-61
2023/04/29 05:05:56;;;;;;;4.40;2.75;;;;;;;10.45;70.03;98398.75;5053990;28;20631;-61
2023/04/29 05:08:22;;;;;;;4.63;3.50;;;;;;;10.60;70.49;98397.69;5054057;28;20547;-61
2023/04/29 05:10:47;;;;;;;5.82;4.05;;;;;;;10.22;71.68;98334.84;5031522;28;20191;-61
2023/04/29 05:13:12;;;;;;;6.32;4.00;;;;;;;10.30;70.94;98337.72;5031934;28;20257;-61
2023/04/29 05:15:38;;;;;;;6.78;4.30;;;;;;;10.45;70.09;98340.06;5031554;28;20194;-61
2023/04/29 05:18:03;;;;;;;4.55;4.15;;;;;;;11.01;69.70;98413.75;5031789;28;20600;-61
2023/04/29 05:20:29;;;;;;;6.20;4.00;;;;;;;10.79;69.82;98398.91;5031468;28;20220;-61
2023/04/29 05:22:54;;;;;;;6.68;4.00;;;;;;;10.72;69.53;98358.88;5031454;28;20332;-61
2023/04/29 05:25:19;;;;;;;7.75;4.43;;;;;;;10.80;69.39;98359.16;5031381;28;20221;-61
2023/04/29 05:27:45;;;;;;;7.47;4.43;;;;;;;10.99;69.02;98380.25;5031335;28;20657;-61
2023/04/29 05:30:11;;;;;;;7.65;4.40;;;;;;;10.88;68.46;98335.31;5031301;28;20272;-61
2023/04/29 05:32:36;;;;;;;7.63;4.50;;;;;;;11.29;68.15;98393.59;5031236;28;20579;-61
2023/04/29 05:35:01;;;;;;;7.97;4.22;;;;;;;11.63;67.93;98439.50;5031140;28;20571;-61
2023/04/29 05:37:29;;;;;;;12.52;4.93;;;;;;;11.62;68.10;98424.06;5031398;28;20225;-61
2023/04/29 05:39:55;;;;;;;10.60;5.32;;;;;;;11.63;68.67;98410.16;5030032;28;20192;-61
2023/04/29 05:42:22;;;;;;;12.90;5.25;;;;;;;11.29;69.12;98333.19;5047487;28;20214;-61
2023/04/29 05:44:47;;;;;;;8.60;4.97;;;;;;;11.56;69.41;98370.84;5053213;28;20569;-61
2023/04/29 05:47:13;;;;;;;12.15;6.10;;;;;;;11.64;69.07;98375.50;5052946;28;20261;-61
2023/04/29 05:49:38;;;;;;;8.35;5.05;;;;;;;11.77;68.62;98389.22;5053162;28;20273;-61
2023/04/29 05:52:05;;;;;;;6.97;3.42;;;;;;;11.74;67.18;98379.09;5053149;28;20193;-61
2023/04/29 05:54:32;;;;;;;6.05;3.22;;;;;;;11.22;64.42;98295.72;5053109;28;20543;-62
2023/04/29 05:56:57;;;;;;;4.32;2.90;;;;;;;11.15;64.34;98299.69;5052978;28;20186;-62
2023/04/29 05:59:30;;;;;;;2.75;2.55;;;;;;;10.93;65.53;98284.06;5068855;28;20555;-62
2023/04/29 06:01:56;;;;;;;5.90;2.70;;;;;;;11.13;66.35;98346.41;5046632;28;20198;-63
2023/04/29 06:04:23;;;;;;;3.42;2.60;;;;;;;11.16;66.89;98385.03;5046849;28;20186;-62
2023/04/29 06:06:50;;;;;;;5.18;2.78;;;;;;;11.19;66.72;98371.03;5046623;28;20197;-62
2023/04/29 06:09:15;;;;;;;6.63;3.10;;;;;;;10.84;66.50;98284.69;5046674;28;20197;-62
2023/04/29 06:11:40;;;;;;;3.42;3.13;;;;;;;11.28;65.94;98328.94;5046662;28;20188;-62
2023/04/29 06:14:06;;;;;;;2.78;2.58;;;;;;;11.51;64.10;98315.13;5046268;28;20189;-62
2023/04/29 06:16:32;;;;;;;3.10;2.60;;;;;;;11.55;63.19;98291.47;5045867;28;20521;-63
2023/04/29 06:18:57;;;;;;;3.53;2.63;;;;;;;11.85;62.76;98311.72;5046523;28;20228;-62
2023/04/29 06:21:22;;;;;;;3.30;2.40;;;;;;;12.00;62.64;98323.50;5046478;28;20185;-62
2023/04/29 06:23:48;;;;;;;3.63;2.80;;;;;;;11.97;62.36;98271.91;5046464;28;20206;-62
2023/04/29 06:26:14;;;;;;;6.90;3.45;;;;;;;12.69;61.21;98354.44;5046313;28;20676;-62
2023/04/29 06:28:39;;;;;;;9.23;3.30;;;;;;;12.43;60.00;98283.78;5045853;28;20198;-62
2023/04/29 06:31:04;;;;;;;5.63;2.95;;;;;;;12.82;59.95;98322.22;5046647;28;20173;-62
2023/04/29 06:33:32;;;;;;;5.50;2.38;;;;;;;12.83;58.86;98292.69;5062624;28;20272;-63
2023/04/29 06:35:57;;;;;;;3.10;2.15;;;;;;;13.27;57.00;98351.53;5068191;28;20177;-63
2023/04/29 06:38:23;;;;;;;4.45;2.33;;;;;;;13.00;57.08;98286.22;5067628;28;20258;-63
2023/04/29 06:40:48;;;;;;;4.35;2.67;;;;;;;13.58;57.76;98361.94;5067998;28;20706;-63
2023/04/29 06:43:14;;;;;;;3.88;2.78;;;;;;;13.77;57.58;98353.47;5066109;28;20181;-62
2023/04/29 06:45:40;;;;;;;5.78;3.28;;;;;;;13.72;57.34;98327.00;5068580;28;20230;-63
2023/04/29 06:48:05;;;;;;;4.53;3.28;;;;;;;13.94;58.33;98371.09;5068162;28;20272;-63
2023/04/29 06:50:31;;;;;;;6.35;3.10;;;;;;;14.07;58.28;98362.16;5068533;28;20226;-63
2023/04/29 06:52:56;;;;;;;4.22;2.88;;;;;;;13.96;57.58;98320.59;5068240;28;20184;-63
2023/04/29 06:55:21;;;;;;;5.40;3.47;;;;;;;14.19;57.45;98327.34;5068168;28;20747;-63
2023/04/29 06:57:47;;;;;;;7.05;3.67;;;;;;;14.48;57.03;98353.50;5065200;28;20319;-63
2023/04/29 07:00:13;;;;;;;5.30;3.47;;;;;;;14.43;56.83;98335.66;5065454;28;20233;-63
2023/04/29 07:02:39;;;;;;;4.55;3.80;;;;;;;14.36;56.50;98308.47;5065347;28;20193;-63
2023/04/29 07:05:05;;;;;;;8.45;3.50;;;;;;;14.45;56.57;98315.53;5065554;28;20268;-63
2023/04/29 07:07:30;;;;;;;5.18;3.50;;;;;;;14.60;56.80;98326.41;5064417;28;20196;-62
2023/04/29 07:09:55;;;;;;;5.20;3.55;;;;;;;14.85;56.65;98354.56;5056719;28;20185;-63
2023/04/29 07:12:21;;;;;;;4.53;4.13;;;;;;;14.82;56.59;98342.63;5052220;28;20712;-63
2023/04/29 07:14:46;;;;;;;7.50;4.32;;;;;;;14.54;56.86;98296.53;5051006;28;20253;-63
2023/04/29 07:17:12;;;;;;;9.25;4.15;;;;;;;14.73;56.98;98295.72;5071377;28;20219;-62
2023/04/29 07:19:37;;;;;;;6.57;3.88;;;;;;;15.13;56.47;98340.78;5072019;28;20192;-63
2023/04/29 07:22:03;;;;;;;10.05;4.70;;;;;;;15.23;56.12;98352.06;5071966;28;20288;-63
2023/04/29 07:24:28;;;;;;;8.18;4.70;;;;;;;15.10;56.28;98362.72;5071321;28;20177;-63
2023/04/29 07:26:53;;;;;;;13.93;4.32;;;;;;;14.82;57.03;98303.56;5070959;28;20243;-63
2023/04/29 07:29:19;;;;;;;8.65;4.30;;;;;;;14.58;57.12;98271.03;5071859;28;20290;-63
2023/04/29 07:31:44;;;;;;;5.03;3.65;;;;;;;15.13;56.47;98348.59;5071688;28;20268;-63
2023/04/29 07:34:10;;;;;;;8.48;4.00;;;;;;;14.83;56.48;98293.97;5071517;28;20264;-63
2023/04/29 07:36:36;;;;;;;9.35;4.18;;;;;;;15.24;55.95;98353.72;5071702;28;20260;-63
2023/04/29 07:39:01;;;;;;;6.82;4.45;;;;;;;15.29;55.53;98346.31;5071539;28;20752;-63
2023/04/29 07:41:27;;;;;;;8.27;4.20;;;;;;;15.00;55.64;98324.59;5031256;28;20213;-63
2023/04/29 07:43:52;;;;;;;6.18;4.18;;;;;;;14.94;56.24;98325.94;5030481;28;20218;-62
2023/04/29 07:46:18;;;;;;;6.40;4.03;;;;;;;14.98;56.85;98352.56;5031192;28;20649;-63
2023/04/29 07:48:44;;;;;;;8.93;4.35;;;;;;;14.99;57.06;98339.38;5030795;28;20186;-63
2023/04/29 07:51:14;;;;;;;10.23;4.50;;;;;;;14.85;57.49;98328.53;5030686;28;20183;-62
2023/04/29 07:53:40;;;;;;;9.77;4.15;;;;;;;14.79;56.42;98295.19;5029522;28;20187;-63
2023/04/29 07:56:06;;;;;;;7.85;4.10;;;;;;;14.73;56.18;98267.09;5011695;28;20281;-63
2023/04/29 07:58:32;;;;;;;14.30;4.47;;;;;;;14.73;56.60;98260.09;5010277;28;20210;-63
2023/04/29 08:01:05;;;;;;;10.50;4.25;;;;;;;15.24;56.84;98349.34;5011371;28;20581;-61
2023/04/29 08:03:30;;;;;;;12.27;5.05;;;;;;;14.94;56.34;98299.06;5011392;28;20179;-61
2023/04/29 08:06:00;;;;;;;9.15;4.70;;;;;;;15.21;56.75;98328.72;5011012;28;20195;-61
2023/04/29 08:08:25;;;;;;;6.28;4.35;;;;;;;15.05;56.59;98306.78;5011250;28;20201;-61
2023/04/29 08:10:51;;;;;;;11.43;4.60;;;;;;;15.29;56.10;98328.88;5011179;28;20673;-64
2023/04/29 08:13:16;;;;;;;6.07;4.88;;;;;;;15.05;55.66;98259.88;5030636;28;20182;-62
2023/04/29 08:15:42;;;;;;;9.20;4.65;;;;;;;15.39;56.17;98295.03;5030874;28;20310;-62
2023/04/29 08:18:07;;;;;;;7.90;4.18;;;;;;;15.65;56.19;98322.19;5038514;28;20215;-62
2023/04/29 08:20:32;;;;;;;11.02;4.90;;;;;;;15.61;55.08;98289.50;5070403;28;20313;-62
2023/04/29 08:22:59;;;;;;;8.02;4.20;;;;;;;15.95;55.01;98319.41;5070443;28;20192;-62
2023/04/29 08:25:25;;;;;;;7.03;4.53;;;;;;;16.14;54.08;98314.97;5070743;28;20283;-61
2023/04/29 08:27:51;;;;;;;5.47;4.22;;;;;;;15.78;52.95;98239.22;5068454;28;20189;-62
2023/04/29 08:30:17;;;;;;;8.32;4.63;;;;;;;16.32;51.70;98308.03;5049687;28;20194;-62
2023/04/29 08:32:42;;;;;;;6.53;4.47;;;;;;;16.34;51.77;98313.94;5050913;28;20182;-62
2023/04/29 08:35:08;;;;;;;5.28;4.78;;;;;;;16.20;51.25;98271.81;5050628;28;20739;-63
2023/04/29 08:37:33;;;;;;;5.65;4.15;;;;;;;16.00;51.15;98231.06;5050510;28;20216;-62
2023/04/29 08:39:59;;;;;;;6.97;4.70;;;;;;;16.37;50.77;98273.63;5050516;28;20316;-62
2023/04/29 08:42:35;;;;;;;5.68;4.30;;;;;;;16.31;51.21;98258.56;5050505;28;20780;-63
2023/04/29 08:45:02;;;;;;;5.97;4.32;;;;;;;16.65;50.92;98317.13;5050420;28;20193;-64
2023/04/29 08:47:31;;;;;;;10.02;4.45;;;;;;;16.35;50.75;98270.34;5050373;28;20275;-61
2023/04/29 08:50:06;;;;;;;7.88;4.57;;;;;;;16.61;48.99;98303.53;5050281;28;20190;-61
2023/04/29 08:52:32;;;;;;;6.70;4.05;;;;;;;16.36;49.83;98278.06;5050663;28;20558;-61
2023/04/29 08:55:04;;;;;;;4.85;4.35;;;;;;;16.36;50.13;98287.66;5050216;28;20177;-61
2023/04/29 08:57:41;;;;;;;6.53;4.13;;;;;;;15.97;50.45;98207.88;5049851;28;20209;-61
2023/04/29 09:00:10;;;;;;;6.05;4.00;;;;;;;16.10;50.82;98244.91;5050272;28;20188;-61
2023/04/29 09:02:44;;;;;;;7.93;4.32;;;;;;;15.92;50.49;98246.63;5036952;28;20677;-61
2023/04/29 09:05:10;;;;;;;7.68;4.07;;;;;;;16.14;49.32;98244.47;5070099;28;20569;-61
2023/04/29 09:07:38;;;;;;;7.63;4.78;;;;;;;16.43;49.22;98279.16;5070273;28;20187;-62
2023/04/29 09:10:04;;;;;;;6.03;4.10;;;;;;;16.04;49.55;98188.06;5069953;28;20609;-61
2023/04/29 09:12:30;;;;;;;5.28;3.97;;;;;;;16.41;48.45;98246.31;5049724;28;20192;-61
2023/04/29 09:14:56;;;;;;;5.82;3.72;;;;;;;16.78;48.76;98287.09;5049940;28;20198;-61
2023/04/29 09:17:44;;;;;;;5.45;4.18;;;;;;;16.81;46.80;98278.13;5049824;28;20189;-61
2023/04/29 09:20:19;;;;;;;5.85;3.92;;;;;;;16.98;45.26;98279.94;5049813;28;20186;-61
2023/04/29 09:22:50;;;;;;;6.63;4.43;;;;;;;16.30;46.18;98191.63;5049783;28;20176;-61
2023/04/29 09:25:16;;;;;;;5.32;4.32;;;;;;;16.40;46.48;98185.44;5049878;28;20687;-61
2023/04/29 09:27:42;;;;;;;3.90;3.47;;;;;;;16.45;45.24;98188.41;5049616;28;20226;-61
2023/04/29 09:30:08;;;;;;;3.80;3.40;;;;;;;16.82;45.67;98222.28;5047659;28;20189;-62
2023/04/29 09:32:33;;;;;;;4.65;4.05;;;;;;;16.84;45.76;98194.22;5029522;28;20727;-61
2023/04/29 09:35:25;;;;;;;8.23;4.25;;;;;;;17.48;44.84;98275.88;5029717;28;20187;-61
2023/04/29 09:38:07;;;;;;;5.18;3.35;;;;;;;17.19;42.92;98189.78;5029661;28;20220;-61
2023/04/29 09:40:33;;;;;;;5.13;4.00;;;;;;;17.39;43.67;98219.22;5029655;28;20186;-62
2023/04/29 09:43:00;;;;;;;3.00;2.80;;;;;;;17.67;43.86;98254.78;5035421;28;20848;-62
2023/04/29 09:45:40;;;;;;;3.72;2.70;;;;;;;17.41;42.54;98193.72;5049754;28;20189;-62
2023/04/29 09:48:07;;;;;;;4.07;3.33;;;;;;;17.64;41.93;98211.41;5049584;28;20187;-62
2023/04/29 09:50:37;;;;;;;6.15;3.05;;;;;;;17.45;42.00;98163.69;5049329;28;20314;-62
2023/04/29 09:53:03;;;;;;;6.38;3.30;;;;;;;17.99;41.29;98241.88;5049438;28;20200;-62
2023/04/29 09:55:30;;;;;;;6.25;3.10;;;;;;;17.78;41.02;98189.09;5049379;28;20200;-62
2023/04/29 09:57:56;;;;;;;3.85;2.80;;;;;;;17.93;40.36;98196.22;5049090;28;20725;-62
2023/04/29 10:00:22;;;;;;;3.70;2.92;;;;;;;18.26;39.14;98220.75;5050065;28;20196;-62
2023/04/29 10:02:51;;;;;;;6.43;3.35;;;;;;;18.45;39.36;98223.97;5051733;28;20181;-62
2023/04/29 10:05:17;;;;;;;3.58;3.03;;;;;;;18.28;38.09;98184.72;5051669;28;20177;-62
2023/04/29 10:07:45;;;;;;;4.63;3.00;;;;;;;18.66;37.81;98239.28;5051567;28;20735;-62
2023/04/29 10:10:12;;;;;;;3.30;2.88;;;;;;;18.24;37.79;98147.56;5051715;28;20185;-62
2023/04/29 10:12:39;;;;;;;4.10;3.00;;;;;;;18.69;37.49;98233.69;5051385;28;20658;-62
2023/04/29 10:15:28;;;;;;;3.60;3.30;;;;;;;18.56;36.65;98236.78;5051671;28;20173;-62
2023/04/29 10:18:02;;;;;;;3.45;2.70;;;;;;;18.38;35.63;98209.88;5051588;28;20608;-62
2023/04/29 10:20:28;;;;;;;2.83;2.50;;;;;;;18.18;35.75;98150.81;5051880;28;20177;-62
2023/04/29 10:22:55;;;;;;;3.03;2.50;;;;;;;18.29;36.23;98133.97;5051557;28;20176;-62
2023/04/29 10:25:23;;;;;;;4.82;3.08;;;;;;;18.80;35.54;98191.44;5051558;28;20246;-62
2023/04/29 10:27:52;;;;;;;4.03;2.75;;;;;;;19.01;36.13;98212.81;5051527;28;20180;-62
2023/04/29 10:30:18;;;;;;;4.30;2.83;;;;;;;18.48;34.93;98128.50;5051592;28;20227;-61
2023/04/29 10:32:45;;;;;;;2.90;2.20;;;;;;;18.55;34.14;98164.41;5051483;28;20177;-62
2023/04/29 10:35:14;;;;;;;2.60;2.40;;;;;;;18.53;34.04;98119.16;5051432;28;20188;-62
2023/04/29 10:37:41;;;;;;;5.43;2.78;;;;;;;18.97;34.16;98177.38;5051351;28;20201;-62
2023/04/29 10:40:26;;;;;;;3.92;2.95;;;;;;;19.16;34.20;98167.41;5051643;28;20181;-62
2023/04/29 10:42:53;;;;;;;4.18;2.50;;;;;;;19.15;33.25;98136.06;5051351;28;20196;-62
2023/04/29 10:45:26;;;;;;;3.92;2.40;;;;;;;19.82;32.65;98196.84;5053183;28;20184;-62
2023/04/29 10:48:00;;;;;;;2.50;2.30;;;;;;;20.14;31.60;98201.22;5055007;28;20192;-62
2023/04/29 10:50:30;;;;;;;2.45;2.25;;;;;;;20.18;31.24;98150.81;5055114;28;20195;-62
2023/04/29 10:52:56;;;;;;;5.30;2.80;;;;;;;20.48;31.23;98180.72;5092457;28;20655;-62
2023/04/29 10:55:22;;;;;;;5.10;2.15;;;;;;;20.80;31.02;98193.69;5092508;28;20272;-62
2023/04/29 10:57:48;;;;;;;3.03;2.30;;;;;;;20.77;30.02;98139.63;5092277;28;20216;-62
2023/04/29 11:00:27;;;;;;;2.70;2.22;;;;;;;21.31;29.93;98178.03;5092738;28;20575;-62
2023/04/29 11:02:57;;;;;;;3.70;2.17;;;;;;;21.08;29.38;98116.72;5092648;28;20190;-62
2023/04/29 11:05:33;;;;;;;6.10;3.05;;;;;;;21.35;29.45;98183.78;5092572;28;20714;-63
2023/04/29 11:08:28;;;;;;;6.95;2.78;;;;;;;21.08;29.70;98186.94;5052288;28;20242;-62
2023/04/29 11:11:00;;;;;;;3.67;2.70;;;;;;;20.64;29.82;98113.09;4973068;28;20196;-62
2023/04/29 11:13:30;;;;;;;5.10;2.60;;;;;;;21.29;30.18;98173.94;4971629;28;20201;-62
2023/04/29 11:16:06;;;;;;;6.38;2.60;;;;;;;21.47;28.73;98177.06;4973256;28;20812;-62
2023/04/29 11:18:33;;;;;;;2.40;2.15;;;;;;;21.65;28.66;98172.28;4973352;28;20218;-62
2023/04/29 11:21:19;;;;;;;3.35;2.08;;;;;;;21.59;29.71;98170.38;4973375;28;20188;-62
2023/04/29 11:23:46;;;;;;;6.05;2.30;;;;;;;21.79;29.62;98166.28;4964901;28;20251;-62
2023/04/29 11:26:12;;;;;;;2.55;2.05;;;;;;;22.08;29.08;98161.00;4954014;29;20187;-63
2023/04/29 11:28:41;;;;;;;4.25;2.45;;;;;;;22.35;28.41;98157.69;4934588;29;20272;-62
2023/04/29 11:31:06;;;;;;;3.67;2.75;;;;;;;22.47;27.93;98156.22;4934763;29;20280;-63
2023/04/29 11:33:32;;;;;;;3.30;1.77;;;;;;;22.35;27.08;98158.50;4934644;29;20292;-63
2023/04/29 11:35:59;;;;;;;7.35;2.67;;;;;;;22.16;27.27;98118.72;4934735;29;20186;-62
2023/04/29 11:38:29;;;;;;;5.38;2.70;;;;;;;22.37;27.93;98145.94;4944777;28;20311;-62